Time;durP1;ratioP1;P1;durP2;ratioP2;P2;SDS_P1;SDS_P2;PMS_P1;PMS_P2;Temp;Humidity;BMP_temperature;BMP_pressure;BME280_temperature;BME280_humidity;BME280_pressure;Samples;Min_cycle;Max_cycle;Signal;HPM_P1;HPM_P2
2022/02/19 00:06:04;;;;;;;3.53;0.60;;;6.50;99.90;;;;;;20486504;28;20042;-45
2022/02/19 00:16:06;;;;;;;1.38;0.25;;;6.40;99.90;;;;;;20488173;28;20047;-46
2022/02/19 00:26:07;;;;;;;4.47;1.75;;;6.30;99.90;;;;;;20485643;28;20035;-46
2022/02/19 00:36:08;;;;;;;5.18;1.00;;;6.20;99.90;;;;;;20487621;28;20408;-46
2022/02/19 00:46:10;;;;;;;4.70;0.57;;;6.20;99.90;;;;;;20504378;28;20039;-45
2022/02/19 00:56:11;;;;;;;1.67;0.40;;;6.40;99.90;;;;;;20518059;28;20043;-46
2022/02/19 01:06:12;;;;;;;2.75;1.17;;;6.40;99.90;;;;;;20520419;28;20061;-46
2022/02/19 01:16:14;;;;;;;2.50;0.45;;;6.30;99.90;;;;;;20511024;28;20058;-46
2022/02/19 01:26:15;;;;;;;3.95;0.38;;;6.30;99.90;;;;;;20509062;28;20027;-46
2022/02/19 01:36:16;;;;;;;1.20;0.32;;;6.30;99.90;;;;;;20528419;28;20177;-45
2022/02/19 01:46:17;;;;;;;4.18;0.80;;;6.30;99.90;;;;;;20519254;28;20409;-45
2022/02/19 01:56:18;;;;;;;0.82;0.40;;;6.40;99.90;;;;;;20504636;28;20035;-45
2022/02/19 02:06:22;;;;;;;2.10;0.32;;;6.50;99.90;;;;;;20517019;28;20046;-46
2022/02/19 02:16:41;;;;;;;2.65;0.50;;;6.60;99.90;;;;;;20519930;28;21011;-45
2022/02/19 02:26:44;;;;;;;1.23;0.30;;;6.50;99.90;;;;;;20524511;28;20051;-45
2022/02/19 02:36:46;;;;;;;2.92;0.47;;;6.40;99.90;;;;;;20520797;28;20062;-45
2022/02/19 02:46:47;;;;;;;4.47;1.35;;;6.30;99.90;;;;;;20525934;28;20054;-45
2022/02/19 02:56:48;;;;;;;1.67;0.80;;;6.30;99.90;;;;;;20518684;28;20500;-45
2022/02/19 03:06:49;;;;;;;3.15;0.60;;;6.30;99.90;;;;;;20513211;28;20043;-45
2022/02/19 03:16:50;;;;;;;5.68;0.70;;;6.40;99.90;;;;;;20515543;28;20042;-45
2022/02/19 03:26:52;;;;;;;5.55;0.30;;;6.40;99.90;;;;;;20523539;28;20040;-45
2022/02/19 03:36:53;;;;;;;4.25;0.57;;;6.30;99.90;;;;;;20513220;28;20058;-46
2022/02/19 03:46:54;;;;;;;5.32;0.82;;;6.30;99.90;;;;;;20515423;28;20046;-45
2022/02/19 03:56:55;;;;;;;9.32;0.50;;;6.30;99.90;;;;;;20525148;28;20499;-45
2022/02/19 04:06:56;;;;;;;1.42;0.40;;;6.30;99.90;;;;;;20521591;28;20030;-45
2022/02/19 04:16:57;;;;;;;1.60;0.20;;;6.30;99.90;;;;;;20526676;28;20042;-46
2022/02/19 04:26:58;;;;;;;4.00;0.38;;;6.30;99.90;;;;;;20533332;28;20062;-45
2022/02/19 04:36:59;;;;;;;6.70;2.03;;;6.20;99.90;;;;;;20535720;28;20058;-45
2022/02/19 04:47:00;;;;;;;7.28;0.80;;;6.20;99.90;;;;;;20540460;28;20038;-45
2022/02/19 04:57:02;;;;;;;5.13;0.43;;;6.20;99.90;;;;;;20547200;28;20408;-45
2022/02/19 05:07:04;;;;;;;1.17;0.20;;;6.30;99.90;;;;;;20541641;28;20054;-45
2022/02/19 05:17:05;;;;;;;0.28;0.10;;;6.10;99.90;;;;;;20544061;28;20050;-46
2022/02/19 05:27:06;;;;;;;2.33;0.70;;;6.10;99.90;;;;;;20537831;28;20034;-45
2022/02/19 05:37:07;;;;;;;4.25;0.40;;;6.20;99.90;;;;;;20507922;28;20052;-45
2022/02/19 05:47:08;;;;;;;6.28;0.40;;;6.00;99.90;;;;;;20516344;28;20043;-45
2022/02/19 05:57:09;;;;;;;3.65;0.38;;;6.00;99.90;;;;;;20514473;28;20055;-46
2022/02/19 06:07:11;;;;;;;1.88;0.50;;;5.90;99.90;;;;;;20509585;28;21526;-46
2022/02/19 06:17:12;;;;;;;0.82;0.20;;;6.00;99.90;;;;;;20526506;28;20066;-46
2022/02/19 06:27:13;;;;;;;2.08;0.35;;;6.00;99.90;;;;;;20510642;28;20054;-45
2022/02/19 06:37:14;;;;;;;3.10;0.38;;;5.90;99.90;;;;;;20507731;28;20051;-45
2022/02/19 06:47:15;;;;;;;3.08;0.30;;;5.90;99.90;;;;;;20512618;28;20066;-45
2022/02/19 06:57:17;;;;;;;2.20;0.30;;;5.90;99.90;;;;;;20505418;28;20510;-45
2022/02/19 07:07:18;;;;;;;2.08;0.47;;;6.00;99.90;;;;;;20516048;28;20038;-45
2022/02/19 07:17:19;;;;;;;3.17;0.43;;;6.00;99.90;;;;;;20524531;28;20039;-45
2022/02/19 07:27:20;;;;;;;2.40;0.40;;;5.90;99.90;;;;;;20536903;28;20053;-45
2022/02/19 07:37:21;;;;;;;1.33;0.40;;;6.00;99.90;;;;;;20527082;28;20051;-45
2022/02/19 07:47:27;;;;;;;0.98;0.47;;;6.00;99.90;;;;;;20529141;28;20468;-45
2022/02/19 08:07:48;;;;;;;1.80;0.30;;;6.00;99.90;;;;;;20527044;28;20151;-45
2022/02/19 08:17:49;;;;;;;3.58;0.43;;;6.10;99.90;;;;;;20535315;28;20042;-45
2022/02/19 08:27:50;;;;;;;3.67;0.17;;;6.20;99.90;;;;;;20533349;28;20047;-45
2022/02/19 08:37:52;;;;;;;3.00;0.20;;;6.20;99.90;;;;;;20481012;28;20059;-45
2022/02/19 08:48:01;;;;;;;1.02;0.30;;;6.40;99.90;;;;;;20539262;28;20046;-45
2022/02/19 08:58:03;;;;;;;3.92;1.33;;;6.60;99.90;;;;;;20513475;28;20051;-45
2022/02/19 09:08:04;;;;;;;1.65;0.30;;;6.60;99.90;;;;;;20538263;28;20051;-45
2022/02/19 09:18:07;;;;;;;4.15;0.43;;;7.00;99.90;;;;;;20502877;28;20051;-45
2022/02/19 09:28:08;;;;;;;2.67;0.40;;;7.20;99.90;;;;;;20505107;28;20043;-45
2022/02/19 09:38:09;;;;;;;6.47;1.38;;;7.30;99.90;;;;;;20506386;28;20039;-45
2022/02/19 09:48:10;;;;;;;5.50;0.85;;;7.10;99.90;;;;;;20497847;28;20428;-45
2022/02/19 09:58:12;;;;;;;3.10;1.08;;;7.20;99.90;;;;;;20515789;28;20177;-45
2022/02/19 10:08:13;;;;;;;3.13;0.32;;;7.40;99.90;;;;;;20527419;28;20038;-45
2022/02/19 10:18:21;;;;;;;4.47;0.50;;;7.30;99.90;;;;;;20438550;28;20039;-45
2022/02/19 10:28:22;;;;;;;5.55;0.43;;;7.80;99.90;;;;;;20426437;28;22749;-45
2022/02/19 10:38:24;;;;;;;1.15;0.47;;;7.70;99.90;;;;;;20502042;28;20039;-45
2022/02/19 10:48:26;;;;;;;2.45;0.30;;;7.90;99.90;;;;;;20520524;28;20298;-45
2022/02/19 10:58:28;;;;;;;2.88;0.25;;;8.30;99.90;;;;;;20519797;28;20053;-45
2022/02/19 11:08:29;;;;;;;4.95;0.40;;;8.60;99.90;;;;;;20515195;28;20074;-45
2022/02/19 11:18:35;;;;;;;3.90;0.30;;;8.40;99.90;;;;;;20504537;28;20309;-45
2022/02/19 11:28:38;;;;;;;4.25;0.30;;;8.00;99.90;;;;;;20484573;28;21045;-45
2022/02/19 11:38:50;;;;;;;1.83;0.40;;;7.80;99.90;;;;;;20474088;28;20535;-45
2022/02/19 11:48:51;;;;;;;0.35;0.10;;;7.70;99.90;;;;;;20533727;28;20051;-45
2022/02/19 11:58:55;;;;;;;3.05;0.45;;;8.00;99.90;;;;;;20533223;28;20500;-45
2022/02/19 12:09:06;;;;;;;1.48;0.38;;;8.50;99.90;;;;;;20530430;28;20355;-45
2022/02/19 12:19:12;;;;;;;7.50;0.68;;;9.60;99.90;;;;;;20534274;28;20035;-45
2022/02/19 12:29:22;;;;;;;4.50;0.47;;;9.80;99.90;;;;;;20491866;28;20410;-46
2022/02/19 12:39:25;;;;;;;2.38;0.38;;;9.80;99.90;;;;;;20540805;28;20050;-46
2022/02/19 12:49:26;;;;;;;4.32;0.55;;;9.10;99.90;;;;;;20526727;28;20046;-45
2022/02/19 12:59:32;;;;;;;5.15;0.43;;;9.40;99.90;;;;;;20541201;28;20039;-45
2022/02/19 13:09:33;;;;;;;4.65;0.55;;;9.00;99.90;;;;;;20549399;28;20038;-46
2022/02/19 13:19:37;;;;;;;1.92;0.22;;;8.80;99.90;;;;;;20538859;28;20394;-45
2022/02/19 13:29:39;;;;;;;3.47;0.30;;;9.00;99.90;;;;;;20555092;28;20588;-46
2022/02/19 13:39:43;;;;;;;3.95;0.20;;;8.80;99.90;;;;;;20552303;28;20061;-45
2022/02/19 13:49:49;;;;;;;5.63;0.30;;;8.60;99.90;;;;;;20550085;28;20046;-46
2022/02/19 14:00:01;;;;;;;3.37;0.23;;;8.50;99.90;;;;;;20499322;28;20042;-46
2022/02/19 14:10:10;;;;;;;3.35;0.70;;;8.40;99.90;;;;;;20505301;28;20499;-46
2022/02/19 14:20:13;;;;;;;3.65;0.70;;;8.50;99.90;;;;;;20524984;28;20339;-46
2022/02/19 14:30:16;;;;;;;2.85;0.32;;;8.40;99.90;;;;;;20551171;28;20050;-45
2022/02/19 14:40:17;;;;;;;8.32;0.43;;;8.30;99.90;;;;;;20561057;28;20419;-46
2022/02/19 14:50:19;;;;;;;2.08;0.43;;;8.10;99.90;;;;;;20556921;28;20039;-46
2022/02/19 15:00:20;;;;;;;2.40;0.73;;;8.00;99.90;;;;;;20546996;28;20495;-46
2022/02/19 15:10:21;;;;;;;3.67;0.60;;;8.00;99.90;;;;;;20554968;28;20195;-46
2022/02/19 15:20:22;;;;;;;4.53;0.40;;;8.00;99.90;;;;;;20498568;28;20331;-46
2022/02/19 15:30:24;;;;;;;0.30;0.13;;;7.80;99.90;;;;;;20515667;28;20062;-46
2022/02/19 15:40:25;;;;;;;2.75;0.32;;;7.50;99.90;;;;;;20452780;28;20043;-46
2022/02/19 15:50:26;;;;;;;3.10;0.70;;;7.50;99.90;;;;;;20418323;28;20050;-46
2022/02/19 16:00:27;;;;;;;1.42;0.73;;;7.50;99.90;;;;;;20409325;28;20141;-45
2022/02/19 16:10:29;;;;;;;5.55;0.40;;;7.50;99.90;;;;;;20429442;28;20035;-46
2022/02/19 16:20:30;;;;;;;4.32;0.50;;;7.40;99.90;;;;;;20480895;28;20172;-46
2022/02/19 16:30:32;;;;;;;9.43;0.80;;;7.50;99.90;;;;;;20514165;28;20039;-46
2022/02/19 16:40:33;;;;;;;1.58;0.43;;;7.20;99.90;;;;;;20449335;28;20403;-46
2022/02/19 16:50:35;;;;;;;2.78;0.80;;;6.50;99.90;;;;;;20474328;28;20043;-46
2022/02/19 17:00:36;;;;;;;2.90;0.63;;;6.20;99.90;;;;;;20488765;28;20031;-45
2022/02/19 17:10:38;;;;;;;2.30;0.68;;;6.00;99.90;;;;;;20508667;28;20070;-47
2022/02/19 17:20:39;;;;;;;0.95;0.43;;;5.70;99.90;;;;;;20531593;28;20043;-49
2022/02/19 17:30:40;;;;;;;0.85;0.40;;;5.60;99.90;;;;;;20515389;28;20408;-49
2022/02/19 17:40:42;;;;;;;2.47;0.85;;;5.30;99.90;;;;;;20528751;28;20054;-49
2022/02/19 17:50:44;;;;;;;2.15;0.80;;;5.00;99.90;;;;;;20561535;28;20074;-49
2022/02/19 18:00:46;;;;;;;3.05;0.98;;;4.90;99.90;;;;;;20561470;28;20039;-50
2022/02/19 18:10:48;;;;;;;1.30;0.45;;;4.80;99.90;;;;;;20535031;28;20051;-50
2022/02/19 18:20:49;;;;;;;2.88;0.68;;;4.80;99.90;;;;;;20538410;28;20043;-50
2022/02/19 18:30:50;;;;;;;1.88;0.75;;;4.70;99.90;;;;;;20526537;28;20117;-50
2022/02/19 18:40:51;;;;;;;1.65;0.52;;;4.80;99.90;;;;;;20513806;28;20051;-50
2022/02/19 18:50:52;;;;;;;5.50;1.25;;;4.80;99.90;;;;;;20517772;28;20452;-50
2022/02/19 19:00:54;;;;;;;1.63;0.80;;;5.00;99.90;;;;;;20556817;28;20274;-50
2022/02/19 19:10:56;;;;;;;0.57;0.38;;;4.90;99.90;;;;;;20545680;28;20624;-50
2022/02/19 19:20:57;;;;;;;2.13;0.60;;;5.00;99.90;;;;;;20545360;28;20047;-48
2022/02/19 19:30:58;;;;;;;0.90;0.40;;;5.10;99.90;;;;;;20529792;28;20806;-47
2022/02/19 19:41:01;;;;;;;6.07;0.63;;;5.20;99.90;;;;;;20518554;28;20496;-47
2022/02/19 19:51:02;;;;;;;2.30;0.88;;;5.40;99.90;;;;;;20554303;28;20043;-47
2022/02/19 20:01:05;;;;;;;2.30;0.93;;;5.60;99.90;;;;;;20549514;28;20035;-47
2022/02/19 20:11:06;;;;;;;1.75;0.70;;;5.70;99.90;;;;;;20556357;28;20047;-47
2022/02/19 20:21:08;;;;;;;1.58;0.40;;;5.90;99.90;;;;;;20538114;28;20034;-48
2022/02/19 20:31:09;;;;;;;0.40;0.20;;;6.00;99.90;;;;;;20554705;28;20042;-48
2022/02/19 20:41:10;;;;;;;4.28;0.50;;;6.00;99.90;;;;;;20518241;28;21560;-48
2022/02/19 20:51:12;;;;;;;0.98;0.30;;;6.10;99.90;;;;;;20544809;28;20038;-47
2022/02/19 21:01:13;;;;;;;2.53;0.57;;;6.30;99.90;;;;;;20563186;28;20411;-47
2022/02/19 21:11:14;;;;;;;2.08;0.82;;;6.40;99.90;;;;;;20587057;28;20042;-47
2022/02/19 21:21:15;;;;;;;14.85;2.28;;;6.60;99.90;;;;;;20586454;28;20043;-46
2022/02/19 21:31:16;;;;;;;4.00;1.88;;;7.00;99.90;;;;;;20529212;28;20089;-46
2022/02/19 21:41:17;;;;;;;6.07;1.40;;;7.30;99.90;;;;;;20505193;28;20039;-47
2022/02/19 21:51:19;;;;;;;3.15;1.10;;;7.20;99.90;;;;;;20479698;28;20039;-47
2022/02/19 22:01:21;;;;;;;9.45;1.13;;;7.00;99.90;;;;;;20479893;28;20047;-46
2022/02/19 22:11:22;;;;;;;3.33;0.90;;;6.70;99.90;;;;;;20480837;28;20379;-46
2022/02/19 22:21:23;;;;;;;4.13;1.33;;;6.50;99.90;;;;;;20483309;28;20039;-46
2022/02/19 22:31:25;;;;;;;2.85;0.65;;;6.40;99.90;;;;;;20451325;28;20044;-46
2022/02/19 22:41:26;;;;;;;3.72;1.52;;;6.10;99.90;;;;;;20412654;28;20055;-46
2022/02/19 22:51:27;;;;;;;1.73;0.50;;;6.20;99.90;;;;;;20481006;28;20046;-46
2022/02/19 23:01:34;;;;;;;2.58;0.93;;;6.20;99.90;;;;;;20490459;28;20062;-46
2022/02/19 23:11:35;;;;;;;5.90;1.35;;;6.20;99.90;;;;;;20488082;28;20051;-46
2022/02/19 23:21:37;;;;;;;1.98;0.30;;;6.30;99.90;;;;;;20474269;28;20563;-45
2022/02/19 23:31:40;;;;;;;1.90;0.30;;;6.10;99.90;;;;;;20488085;28;20516;-45
2022/02/19 23:41:41;;;;;;;2.05;0.47;;;5.80;99.90;;;;;;20489683;28;20050;-45
2022/02/19 23:51:42;;;;;;;0.25;0.08;;;5.70;99.90;;;;;;20488598;28;20121;-45
